X  Tanca Dades meteorològiques de l'aviació METAR     EBBR Brussels Airport
Temperatura
0°C Temperatura
-1°C Rosada
93% Humitat



Vent
10 KM/H
6 MPH
3 M/S
5 NUS



20°
NNE
Condicions actuals

Sense núvols Sense núvols
Pressió 1026.92 (hPa) - 30.32 (inHg)
Visibilitat 6.2 (milla) - 10 (km)
Aeroport
Codi aeroport EBBR

Ubicació: Brussels Airport
Distància: 14 (km)

Metar:
EBBR 050650Z 02005KT CAVOK 00/M01 Q1027 NOSIG

Temps: 03-05-2021 07:50 CET